sensor_id;sensor_type;location;lat;lon;timestamp;temperature;humidity
84440;SHT31;74675;51.980;5.730;2024-01-30T00:01:22;10.6;71.7
84440;SHT31;74675;51.980;5.730;2024-01-30T00:03:50;10.6;71.8
84440;SHT31;74675;51.980;5.730;2024-01-30T00:06:20;10.6;71.9
84440;SHT31;74675;51.980;5.730;2024-01-30T00:08:50;10.5;72.0
84440;SHT31;74675;51.980;5.730;2024-01-30T00:11:20;10.5;72.2
84440;SHT31;74675;51.980;5.730;2024-01-30T00:13:48;10.5;72.2
84440;SHT31;74675;51.980;5.730;2024-01-30T00:16:24;10.5;72.3
84440;SHT31;74675;51.980;5.730;2024-01-30T00:18:54;10.4;72.3
84440;SHT31;74675;51.980;5.730;2024-01-30T00:21:23;10.4;72.4
84440;SHT31;74675;51.980;5.730;2024-01-30T00:23:52;10.4;72.5
84440;SHT31;74675;51.980;5.730;2024-01-30T00:26:20;10.4;72.6
84440;SHT31;74675;51.980;5.730;2024-01-30T00:28:49;10.4;72.6
84440;SHT31;74675;51.980;5.730;2024-01-30T00:31:18;10.3;72.8
84440;SHT31;74675;51.980;5.730;2024-01-30T00:33:48;10.3;72.9
84440;SHT31;74675;51.980;5.730;2024-01-30T00:36:17;10.3;73.0
84440;SHT31;74675;51.980;5.730;2024-01-30T00:38:46;10.3;73.0
84440;SHT31;74675;51.980;5.730;2024-01-30T00:41:17;10.3;73.1
84440;SHT31;74675;51.980;5.730;2024-01-30T00:43:46;10.2;73.3
84440;SHT31;74675;51.980;5.730;2024-01-30T00:46:14;10.2;73.3
84440;SHT31;74675;51.980;5.730;2024-01-30T00:48:43;10.2;73.3
84440;SHT31;74675;51.980;5.730;2024-01-30T00:51:14;10.2;73.3
84440;SHT31;74675;51.980;5.730;2024-01-30T00:53:45;10.2;73.3
84440;SHT31;74675;51.980;5.730;2024-01-30T00:56:14;10.2;73.2
84440;SHT31;74675;51.980;5.730;2024-01-30T00:58:44;10.2;73.0
84440;SHT31;74675;51.980;5.730;2024-01-30T01:01:13;10.3;72.4
84440;SHT31;74675;51.980;5.730;2024-01-30T01:03:43;10.3;72.3
84440;SHT31;74675;51.980;5.730;2024-01-30T01:06:12;10.3;72.1
84440;SHT31;74675;51.980;5.730;2024-01-30T01:08:41;10.3;72.1
84440;SHT31;74675;51.980;5.730;2024-01-30T01:11:09;10.3;71.8
84440;SHT31;74675;51.980;5.730;2024-01-30T01:13:38;10.3;71.4
84440;SHT31;74675;51.980;5.730;2024-01-30T01:16:07;10.3;70.7
84440;SHT31;74675;51.980;5.730;2024-01-30T01:18:36;10.3;70.5
84440;SHT31;74675;51.980;5.730;2024-01-30T01:21:04;10.3;70.2
84440;SHT31;74675;51.980;5.730;2024-01-30T01:23:33;10.3;70.3
84440;SHT31;74675;51.980;5.730;2024-01-30T01:26:02;10.3;70.5
84440;SHT31;74675;51.980;5.730;2024-01-30T01:28:30;10.3;70.5
84440;SHT31;74675;51.980;5.730;2024-01-30T01:30:59;10.3;70.8
84440;SHT31;74675;51.980;5.730;2024-01-30T01:33:33;10.2;70.8
84440;SHT31;74675;51.980;5.730;2024-01-30T01:36:03;10.2;70.8
84440;SHT31;74675;51.980;5.730;2024-01-30T01:38:33;10.2;70.6
84440;SHT31;74675;51.980;5.730;2024-01-30T01:41:01;10.2;71.0
84440;SHT31;74675;51.980;5.730;2024-01-30T01:43:30;10.1;70.9
84440;SHT31;74675;51.980;5.730;2024-01-30T01:45:59;10.1;70.8
84440;SHT31;74675;51.980;5.730;2024-01-30T01:48:30;10.1;71.1
84440;SHT31;74675;51.980;5.730;2024-01-30T01:50:59;10.1;71.0
84440;SHT31;74675;51.980;5.730;2024-01-30T01:53:30;10.0;70.9
84440;SHT31;74675;51.980;5.730;2024-01-30T01:56:00;10.0;70.2
84440;SHT31;74675;51.980;5.730;2024-01-30T01:58:31;10.0;70.7
84440;SHT31;74675;51.980;5.730;2024-01-30T02:01:02;9.9;70.5
84440;SHT31;74675;51.980;5.730;2024-01-30T02:03:32;9.9;70.6
84440;SHT31;74675;51.980;5.730;2024-01-30T02:06:03;9.9;71.1
84440;SHT31;74675;51.980;5.730;2024-01-30T02:08:32;9.8;71.1
84440;SHT31;74675;51.980;5.730;2024-01-30T02:11:01;9.8;71.5
84440;SHT31;74675;51.980;5.730;2024-01-30T02:13:30;9.8;71.7
84440;SHT31;74675;51.980;5.730;2024-01-30T02:16:01;9.8;71.9
84440;SHT31;74675;51.980;5.730;2024-01-30T02:18:31;9.7;71.9
84440;SHT31;74675;51.980;5.730;2024-01-30T02:21:05;9.7;71.4
84440;SHT31;74675;51.980;5.730;2024-01-30T02:23:34;9.7;70.8
84440;SHT31;74675;51.980;5.730;2024-01-30T02:26:03;9.7;71.4
84440;SHT31;74675;51.980;5.730;2024-01-30T02:28:32;9.7;71.3
84440;SHT31;74675;51.980;5.730;2024-01-30T02:31:00;9.6;71.1
84440;SHT31;74675;51.980;5.730;2024-01-30T02:33:29;9.6;71.6
84440;SHT31;74675;51.980;5.730;2024-01-30T02:35:58;9.6;71.2
84440;SHT31;74675;51.980;5.730;2024-01-30T02:38:27;9.6;71.5
84440;SHT31;74675;51.980;5.730;2024-01-30T02:40:55;9.6;70.4
84440;SHT31;74675;51.980;5.730;2024-01-30T02:43:26;9.6;70.0
84440;SHT31;74675;51.980;5.730;2024-01-30T02:45:55;9.6;70.4
84440;SHT31;74675;51.980;5.730;2024-01-30T02:48:24;9.5;70.7
84440;SHT31;74675;51.980;5.730;2024-01-30T02:50:53;9.5;70.7
84440;SHT31;74675;51.980;5.730;2024-01-30T02:53:22;9.5;71.3
84440;SHT31;74675;51.980;5.730;2024-01-30T02:55:51;9.5;71.2
84440;SHT31;74675;51.980;5.730;2024-01-30T02:58:19;9.5;71.0
84440;SHT31;74675;51.980;5.730;2024-01-30T03:00:48;9.5;71.8
84440;SHT31;74675;51.980;5.730;2024-01-30T03:03:17;9.4;71.9
84440;SHT31;74675;51.980;5.730;2024-01-30T03:05:45;9.4;71.5
84440;SHT31;74675;51.980;5.730;2024-01-30T03:08:14;9.4;71.7
84440;SHT31;74675;51.980;5.730;2024-01-30T03:10:43;9.4;72.3
84440;SHT31;74675;51.980;5.730;2024-01-30T03:13:11;9.4;72.6
84440;SHT31;74675;51.980;5.730;2024-01-30T03:15:40;9.4;72.1
84440;SHT31;74675;51.980;5.730;2024-01-30T03:18:09;9.4;72.6
84440;SHT31;74675;51.980;5.730;2024-01-30T03:20:37;9.4;72.3
84440;SHT31;74675;51.980;5.730;2024-01-30T03:23:06;9.4;71.9
84440;SHT31;74675;51.980;5.730;2024-01-30T03:25:34;9.4;71.6
84440;SHT31;74675;51.980;5.730;2024-01-30T03:28:04;9.4;72.1
84440;SHT31;74675;51.980;5.730;2024-01-30T03:30:34;9.4;72.3
84440;SHT31;74675;51.980;5.730;2024-01-30T03:33:03;9.4;71.8
84440;SHT31;74675;51.980;5.730;2024-01-30T03:35:32;9.4;72.3
84440;SHT31;74675;51.980;5.730;2024-01-30T03:38:01;9.4;72.0
84440;SHT31;74675;51.980;5.730;2024-01-30T03:40:30;9.4;71.4
84440;SHT31;74675;51.980;5.730;2024-01-30T03:42:58;9.4;71.9
84440;SHT31;74675;51.980;5.730;2024-01-30T03:45:27;9.4;72.6
84440;SHT31;74675;51.980;5.730;2024-01-30T03:47:56;9.4;72.3
84440;SHT31;74675;51.980;5.730;2024-01-30T03:50:24;9.4;72.0
84440;SHT31;74675;51.980;5.730;2024-01-30T03:52:54;9.4;72.0
84440;SHT31;74675;51.980;5.730;2024-01-30T03:55:23;9.4;72.5
84440;SHT31;74675;51.980;5.730;2024-01-30T03:57:51;9.4;72.4
84440;SHT31;74675;51.980;5.730;2024-01-30T04:00:20;9.4;73.1
84440;SHT31;74675;51.980;5.730;2024-01-30T04:02:49;9.5;73.3
84440;SHT31;74675;51.980;5.730;2024-01-30T04:05:18;9.5;73.0
84440;SHT31;74675;51.980;5.730;2024-01-30T04:07:47;9.5;72.7
84440;SHT31;74675;51.980;5.730;2024-01-30T04:10:16;9.5;72.4
84440;SHT31;74675;51.980;5.730;2024-01-30T04:12:45;9.5;72.6
84440;SHT31;74675;51.980;5.730;2024-01-30T04:15:15;9.6;72.5
84440;SHT31;74675;51.980;5.730;2024-01-30T04:17:44;9.6;72.5
84440;SHT31;74675;51.980;5.730;2024-01-30T04:20:15;9.6;72.5
84440;SHT31;74675;51.980;5.730;2024-01-30T04:22:45;9.6;72.5
84440;SHT31;74675;51.980;5.730;2024-01-30T04:25:14;9.7;72.4
84440;SHT31;74675;51.980;5.730;2024-01-30T04:27:43;9.7;72.4
84440;SHT31;74675;51.980;5.730;2024-01-30T04:30:13;9.7;72.6
84440;SHT31;74675;51.980;5.730;2024-01-30T04:32:43;9.7;72.4
84440;SHT31;74675;51.980;5.730;2024-01-30T04:35:12;9.8;72.2
84440;SHT31;74675;51.980;5.730;2024-01-30T04:37:41;9.8;72.1
84440;SHT31;74675;51.980;5.730;2024-01-30T04:40:12;9.8;72.1
84440;SHT31;74675;51.980;5.730;2024-01-30T04:42:41;9.8;72.0
84440;SHT31;74675;51.980;5.730;2024-01-30T04:45:10;9.9;72.1
84440;SHT31;74675;51.980;5.730;2024-01-30T04:47:39;9.9;72.1
84440;SHT31;74675;51.980;5.730;2024-01-30T04:50:08;9.9;72.2
84440;SHT31;74675;51.980;5.730;2024-01-30T04:52:37;9.9;72.0
84440;SHT31;74675;51.980;5.730;2024-01-30T04:55:06;9.9;72.1
84440;SHT31;74675;51.980;5.730;2024-01-30T04:57:35;9.9;72.2
84440;SHT31;74675;51.980;5.730;2024-01-30T05:00:04;10.0;72.2
84440;SHT31;74675;51.980;5.730;2024-01-30T05:02:33;10.0;72.0
84440;SHT31;74675;51.980;5.730;2024-01-30T05:05:02;10.0;72.1
84440;SHT31;74675;51.980;5.730;2024-01-30T05:07:33;10.0;72.4
84440;SHT31;74675;51.980;5.730;2024-01-30T05:10:03;10.0;72.5
84440;SHT31;74675;51.980;5.730;2024-01-30T05:12:32;10.0;72.4
84440;SHT31;74675;51.980;5.730;2024-01-30T05:15:00;10.1;72.2
84440;SHT31;74675;51.980;5.730;2024-01-30T05:17:29;10.1;72.5
84440;SHT31;74675;51.980;5.730;2024-01-30T05:19:58;10.1;72.4
84440;SHT31;74675;51.980;5.730;2024-01-30T05:22:27;10.1;72.5
84440;SHT31;74675;51.980;5.730;2024-01-30T05:24:55;10.1;72.9
84440;SHT31;74675;51.980;5.730;2024-01-30T05:27:24;10.1;72.8
84440;SHT31;74675;51.980;5.730;2024-01-30T05:29:53;10.1;72.8
84440;SHT31;74675;51.980;5.730;2024-01-30T05:32:21;10.1;72.9
84440;SHT31;74675;51.980;5.730;2024-01-30T05:34:50;10.1;72.9
84440;SHT31;74675;51.980;5.730;2024-01-30T05:37:19;10.1;72.7
84440;SHT31;74675;51.980;5.730;2024-01-30T05:39:50;10.2;72.8
84440;SHT31;74675;51.980;5.730;2024-01-30T05:42:18;10.2;72.9
84440;SHT31;74675;51.980;5.730;2024-01-30T05:44:47;10.2;72.7
84440;SHT31;74675;51.980;5.730;2024-01-30T05:47:16;10.2;72.7
84440;SHT31;74675;51.980;5.730;2024-01-30T05:49:44;10.2;72.6
84440;SHT31;74675;51.980;5.730;2024-01-30T05:52:13;10.3;72.7
84440;SHT31;74675;51.980;5.730;2024-01-30T05:54:42;10.3;72.6
84440;SHT31;74675;51.980;5.730;2024-01-30T05:57:11;10.3;72.7
84440;SHT31;74675;51.980;5.730;2024-01-30T05:59:40;10.3;72.5
84440;SHT31;74675;51.980;5.730;2024-01-30T06:02:10;10.3;72.4
84440;SHT31;74675;51.980;5.730;2024-01-30T06:04:39;10.3;72.5
84440;SHT31;74675;51.980;5.730;2024-01-30T06:07:08;10.4;72.6
84440;SHT31;74675;51.980;5.730;2024-01-30T06:09:36;10.4;72.8
84440;SHT31;74675;51.980;5.730;2024-01-30T06:12:06;10.4;72.9
84440;SHT31;74675;51.980;5.730;2024-01-30T06:14:35;10.4;72.9
84440;SHT31;74675;51.980;5.730;2024-01-30T06:17:03;10.4;73.0
84440;SHT31;74675;51.980;5.730;2024-01-30T06:19:32;10.4;72.9
84440;SHT31;74675;51.980;5.730;2024-01-30T06:22:05;10.4;72.9
84440;SHT31;74675;51.980;5.730;2024-01-30T06:24:34;10.5;72.9
84440;SHT31;74675;51.980;5.730;2024-01-30T06:27:03;10.5;72.9
84440;SHT31;74675;51.980;5.730;2024-01-30T06:29:31;10.5;73.0
84440;SHT31;74675;51.980;5.730;2024-01-30T06:32:00;10.5;72.8
84440;SHT31;74675;51.980;5.730;2024-01-30T06:34:29;10.6;72.8
84440;SHT31;74675;51.980;5.730;2024-01-30T06:36:57;10.6;72.8
84440;SHT31;74675;51.980;5.730;2024-01-30T06:39:26;10.6;72.8
84440;SHT31;74675;51.980;5.730;2024-01-30T06:41:55;10.6;72.8
84440;SHT31;74675;51.980;5.730;2024-01-30T06:44:23;10.6;72.6
84440;SHT31;74675;51.980;5.730;2024-01-30T06:46:52;10.7;72.6
84440;SHT31;74675;51.980;5.730;2024-01-30T06:49:21;10.7;72.7
84440;SHT31;74675;51.980;5.730;2024-01-30T06:51:50;10.7;72.7
84440;SHT31;74675;51.980;5.730;2024-01-30T06:54:20;10.7;72.7
84440;SHT31;74675;51.980;5.730;2024-01-30T06:56:49;10.7;72.7
84440;SHT31;74675;51.980;5.730;2024-01-30T06:59:18;10.7;72.7
84440;SHT31;74675;51.980;5.730;2024-01-30T07:01:48;10.7;72.6
84440;SHT31;74675;51.980;5.730;2024-01-30T07:04:17;10.7;72.9
84440;SHT31;74675;51.980;5.730;2024-01-30T07:06:47;10.7;73.0
84440;SHT31;74675;51.980;5.730;2024-01-30T07:09:16;10.8;73.0
84440;SHT31;74675;51.980;5.730;2024-01-30T07:11:44;10.8;73.0
84440;SHT31;74675;51.980;5.730;2024-01-30T07:14:13;10.8;73.0
84440;SHT31;74675;51.980;5.730;2024-01-30T07:16:42;10.8;73.3
84440;SHT31;74675;51.980;5.730;2024-01-30T07:19:11;10.8;73.4
84440;SHT31;74675;51.980;5.730;2024-01-30T07:21:39;10.8;73.4
84440;SHT31;74675;51.980;5.730;2024-01-30T07:24:08;10.9;73.7
84440;SHT31;74675;51.980;5.730;2024-01-30T07:26:37;10.9;73.4
84440;SHT31;74675;51.980;5.730;2024-01-30T07:29:06;10.9;73.0
84440;SHT31;74675;51.980;5.730;2024-01-30T07:31:35;10.9;73.1
84440;SHT31;74675;51.980;5.730;2024-01-30T07:34:03;11.0;73.2
84440;SHT31;74675;51.980;5.730;2024-01-30T07:36:34;11.0;73.4
84440;SHT31;74675;51.980;5.730;2024-01-30T07:39:03;11.0;73.5
84440;SHT31;74675;51.980;5.730;2024-01-30T07:41:34;11.0;73.8
84440;SHT31;74675;51.980;5.730;2024-01-30T07:44:03;11.0;73.8
84440;SHT31;74675;51.980;5.730;2024-01-30T07:46:32;11.0;73.3
84440;SHT31;74675;51.980;5.730;2024-01-30T07:49:00;11.0;73.4
84440;SHT31;74675;51.980;5.730;2024-01-30T07:51:29;11.0;73.9
84440;SHT31;74675;51.980;5.730;2024-01-30T07:53:59;11.1;73.7
84440;SHT31;74675;51.980;5.730;2024-01-30T07:56:28;11.1;73.4
84440;SHT31;74675;51.980;5.730;2024-01-30T07:58:58;11.1;73.3
84440;SHT31;74675;51.980;5.730;2024-01-30T08:01:29;11.1;73.2
84440;SHT31;74675;51.980;5.730;2024-01-30T08:03:58;11.1;73.0
84440;SHT31;74675;51.980;5.730;2024-01-30T08:06:28;11.1;73.3
84440;SHT31;74675;51.980;5.730;2024-01-30T08:08:57;11.1;73.7
84440;SHT31;74675;51.980;5.730;2024-01-30T08:11:28;11.1;73.9
84440;SHT31;74675;51.980;5.730;2024-01-30T08:13:59;11.1;74.1
84440;SHT31;74675;51.980;5.730;2024-01-30T08:16:28;11.1;74.1
84440;SHT31;74675;51.980;5.730;2024-01-30T08:18:57;11.2;74.2
84440;SHT31;74675;51.980;5.730;2024-01-30T08:21:26;11.2;74.2
84440;SHT31;74675;51.980;5.730;2024-01-30T08:23:55;11.3;73.7
84440;SHT31;74675;51.980;5.730;2024-01-30T08:26:23;11.3;73.3
84440;SHT31;74675;51.980;5.730;2024-01-30T08:28:52;11.4;73.1
84440;SHT31;74675;51.980;5.730;2024-01-30T08:31:21;11.4;73.6
84440;SHT31;74675;51.980;5.730;2024-01-30T08:33:50;11.5;73.9
84440;SHT31;74675;51.980;5.730;2024-01-30T08:36:19;11.6;73.7
84440;SHT31;74675;51.980;5.730;2024-01-30T08:38:48;11.7;73.4
84440;SHT31;74675;51.980;5.730;2024-01-30T08:41:17;11.8;73.0
84440;SHT31;74675;51.980;5.730;2024-01-30T08:43:48;11.9;72.4
84440;SHT31;74675;51.980;5.730;2024-01-30T08:46:19;11.9;72.0
84440;SHT31;74675;51.980;5.730;2024-01-30T08:48:48;12.0;71.8
84440;SHT31;74675;51.980;5.730;2024-01-30T08:51:16;12.0;71.7
84440;SHT31;74675;51.980;5.730;2024-01-30T08:53:45;12.1;71.7
84440;SHT31;74675;51.980;5.730;2024-01-30T08:56:14;12.1;71.8
84440;SHT31;74675;51.980;5.730;2024-01-30T08:58:42;12.1;71.8
84440;SHT31;74675;51.980;5.730;2024-01-30T09:01:11;12.1;72.0
84440;SHT31;74675;51.980;5.730;2024-01-30T09:03:40;12.2;71.9
84440;SHT31;74675;51.980;5.730;2024-01-30T09:06:12;12.2;72.1
84440;SHT31;74675;51.980;5.730;2024-01-30T09:08:40;12.2;72.2
84440;SHT31;74675;51.980;5.730;2024-01-30T09:11:14;12.2;72.3
84440;SHT31;74675;51.980;5.730;2024-01-30T09:13:43;12.2;72.5
84440;SHT31;74675;51.980;5.730;2024-01-30T09:16:12;12.2;72.6
84440;SHT31;74675;51.980;5.730;2024-01-30T09:18:42;12.2;72.8
84440;SHT31;74675;51.980;5.730;2024-01-30T09:21:11;12.2;72.4
84440;SHT31;74675;51.980;5.730;2024-01-30T09:23:42;12.2;72.3
84440;SHT31;74675;51.980;5.730;2024-01-30T09:26:11;12.3;72.2
84440;SHT31;74675;51.980;5.730;2024-01-30T09:28:40;12.3;72.6
84440;SHT31;74675;51.980;5.730;2024-01-30T09:31:11;12.3;72.8
84440;SHT31;74675;51.980;5.730;2024-01-30T09:33:40;12.3;72.6
84440;SHT31;74675;51.980;5.730;2024-01-30T09:36:12;12.3;72.7
84440;SHT31;74675;51.980;5.730;2024-01-30T09:38:41;12.3;73.1
84440;SHT31;74675;51.980;5.730;2024-01-30T09:41:10;12.3;73.3
84440;SHT31;74675;51.980;5.730;2024-01-30T09:43:39;12.3;73.3
84440;SHT31;74675;51.980;5.730;2024-01-30T09:46:12;12.3;73.5
84440;SHT31;74675;51.980;5.730;2024-01-30T09:48:44;12.4;73.9
84440;SHT31;74675;51.980;5.730;2024-01-30T09:51:15;12.4;74.1
84440;SHT31;74675;51.980;5.730;2024-01-30T09:53:44;12.4;73.8
84440;SHT31;74675;51.980;5.730;2024-01-30T09:56:14;12.5;73.5
84440;SHT31;74675;51.980;5.730;2024-01-30T09:58:43;12.5;73.0
84440;SHT31;74675;51.980;5.730;2024-01-30T10:01:14;12.5;72.8
84440;SHT31;74675;51.980;5.730;2024-01-30T10:03:45;12.5;72.7
84440;SHT31;74675;51.980;5.730;2024-01-30T10:06:14;12.6;72.8
84440;SHT31;74675;51.980;5.730;2024-01-30T10:08:46;12.6;72.7
84440;SHT31;74675;51.980;5.730;2024-01-30T10:11:14;12.6;72.6
84440;SHT31;74675;51.980;5.730;2024-01-30T10:13:43;12.6;72.6
84440;SHT31;74675;51.980;5.730;2024-01-30T10:16:13;12.6;72.7
84440;SHT31;74675;51.980;5.730;2024-01-30T10:18:43;12.6;72.8
84440;SHT31;74675;51.980;5.730;2024-01-30T10:21:12;12.7;72.8
84440;SHT31;74675;51.980;5.730;2024-01-30T10:23:43;12.7;72.9
84440;SHT31;74675;51.980;5.730;2024-01-30T10:26:12;12.7;73.0
84440;SHT31;74675;51.980;5.730;2024-01-30T10:28:43;12.7;72.8
84440;SHT31;74675;51.980;5.730;2024-01-30T10:31:16;12.7;72.9
84440;SHT31;74675;51.980;5.730;2024-01-30T10:33:45;12.7;72.9
84440;SHT31;74675;51.980;5.730;2024-01-30T10:36:14;12.7;72.9
84440;SHT31;74675;51.980;5.730;2024-01-30T10:38:45;12.7;72.8
84440;SHT31;74675;51.980;5.730;2024-01-30T10:41:20;12.8;72.6
84440;SHT31;74675;51.980;5.730;2024-01-30T10:44:01;12.8;72.5
84440;SHT31;74675;51.980;5.730;2024-01-30T10:46:32;12.8;72.4
84440;SHT31;74675;51.980;5.730;2024-01-30T10:49:02;12.9;72.2
84440;SHT31;74675;51.980;5.730;2024-01-30T10:51:34;12.9;71.9
84440;SHT31;74675;51.980;5.730;2024-01-30T10:54:05;12.9;71.6
84440;SHT31;74675;51.980;5.730;2024-01-30T10:56:35;12.9;71.5
84440;SHT31;74675;51.980;5.730;2024-01-30T10:59:05;13.0;71.5
84440;SHT31;74675;51.980;5.730;2024-01-30T11:01:37;13.0;71.9
84440;SHT31;74675;51.980;5.730;2024-01-30T11:04:08;13.0;71.9
84440;SHT31;74675;51.980;5.730;2024-01-30T11:06:42;13.1;71.9
84440;SHT31;74675;51.980;5.730;2024-01-30T11:09:12;13.2;72.0
84440;SHT31;74675;51.980;5.730;2024-01-30T11:11:51;13.2;71.9
84440;SHT31;74675;51.980;5.730;2024-01-30T11:14:25;13.3;72.0
84440;SHT31;74675;51.980;5.730;2024-01-30T11:16:57;13.3;71.8
84440;SHT31;74675;51.980;5.730;2024-01-30T11:19:27;13.3;71.6
84440;SHT31;74675;51.980;5.730;2024-01-30T11:21:56;13.4;71.4
84440;SHT31;74675;51.980;5.730;2024-01-30T11:24:25;13.4;71.2
84440;SHT31;74675;51.980;5.730;2024-01-30T11:26:58;13.5;71.0
84440;SHT31;74675;51.980;5.730;2024-01-30T11:29:27;13.5;70.8
84440;SHT31;74675;51.980;5.730;2024-01-30T11:31:58;13.5;70.7
84440;SHT31;74675;51.980;5.730;2024-01-30T11:34:27;13.5;70.8
84440;SHT31;74675;51.980;5.730;2024-01-30T11:36:57;13.5;70.6
84440;SHT31;74675;51.980;5.730;2024-01-30T11:39:27;13.5;70.6
84440;SHT31;74675;51.980;5.730;2024-01-30T11:41:56;13.5;70.1
84440;SHT31;74675;51.980;5.730;2024-01-30T11:44:25;13.5;70.1
84440;SHT31;74675;51.980;5.730;2024-01-30T11:46:54;13.5;69.9
84440;SHT31;74675;51.980;5.730;2024-01-30T11:49:25;13.5;69.6
84440;SHT31;74675;51.980;5.730;2024-01-30T11:51:56;13.5;69.8
84440;SHT31;74675;51.980;5.730;2024-01-30T11:54:25;13.5;68.7
84440;SHT31;74675;51.980;5.730;2024-01-30T11:56:53;13.6;68.9
84440;SHT31;74675;51.980;5.730;2024-01-30T11:59:23;13.6;68.4
84440;SHT31;74675;51.980;5.730;2024-01-30T12:01:51;13.6;68.0
84440;SHT31;74675;51.980;5.730;2024-01-30T12:04:20;13.7;67.5
84440;SHT31;74675;51.980;5.730;2024-01-30T12:06:52;13.7;67.5
84440;SHT31;74675;51.980;5.730;2024-01-30T12:09:21;13.7;67.4
84440;SHT31;74675;51.980;5.730;2024-01-30T12:11:49;13.7;67.6
84440;SHT31;74675;51.980;5.730;2024-01-30T12:14:19;13.7;67.5
84440;SHT31;74675;51.980;5.730;2024-01-30T12:16:50;13.8;67.4
84440;SHT31;74675;51.980;5.730;2024-01-30T12:19:25;13.8;67.1
84440;SHT31;74675;51.980;5.730;2024-01-30T12:21:57;13.8;66.5
84440;SHT31;74675;51.980;5.730;2024-01-30T12:24:28;13.8;66.0
84440;SHT31;74675;51.980;5.730;2024-01-30T12:26:59;13.7;65.8
84440;SHT31;74675;51.980;5.730;2024-01-30T12:29:27;13.7;65.6
84440;SHT31;74675;51.980;5.730;2024-01-30T12:32:02;13.7;65.1
84440;SHT31;74675;51.980;5.730;2024-01-30T12:34:31;13.6;64.7
84440;SHT31;74675;51.980;5.730;2024-01-30T12:37:00;13.5;64.6
84440;SHT31;74675;51.980;5.730;2024-01-30T12:39:29;13.4;64.6
84440;SHT31;74675;51.980;5.730;2024-01-30T12:41:58;13.3;64.9
84440;SHT31;74675;51.980;5.730;2024-01-30T12:44:27;13.2;64.8
84440;SHT31;74675;51.980;5.730;2024-01-30T12:46:56;13.2;64.9
84440;SHT31;74675;51.980;5.730;2024-01-30T12:49:25;13.2;65.0
84440;SHT31;74675;51.980;5.730;2024-01-30T12:51:54;13.1;65.1
84440;SHT31;74675;51.980;5.730;2024-01-30T12:54:23;13.1;64.9
84440;SHT31;74675;51.980;5.730;2024-01-30T12:56:52;13.1;65.1
84440;SHT31;74675;51.980;5.730;2024-01-30T12:59:22;13.1;64.9
84440;SHT31;74675;51.980;5.730;2024-01-30T13:01:51;13.0;64.6
84440;SHT31;74675;51.980;5.730;2024-01-30T13:04:20;13.0;65.4
84440;SHT31;74675;51.980;5.730;2024-01-30T13:06:49;13.0;64.8
84440;SHT31;74675;51.980;5.730;2024-01-30T13:09:17;13.0;65.1
84440;SHT31;74675;51.980;5.730;2024-01-30T13:11:47;12.9;65.4
84440;SHT31;74675;51.980;5.730;2024-01-30T13:14:15;12.9;65.2
84440;SHT31;74675;51.980;5.730;2024-01-30T13:16:44;12.9;65.7
84440;SHT31;74675;51.980;5.730;2024-01-30T13:19:13;12.9;65.4
84440;SHT31;74675;51.980;5.730;2024-01-30T13:21:42;12.9;65.0
84440;SHT31;74675;51.980;5.730;2024-01-30T13:24:11;12.9;64.7
84440;SHT31;74675;51.980;5.730;2024-01-30T13:26:40;12.9;64.7
84440;SHT31;74675;51.980;5.730;2024-01-30T13:29:10;12.9;64.8
84440;SHT31;74675;51.980;5.730;2024-01-30T13:31:41;12.8;65.5
84440;SHT31;74675;51.980;5.730;2024-01-30T13:34:10;12.7;65.5
84440;SHT31;74675;51.980;5.730;2024-01-30T13:36:40;12.6;65.7
84440;SHT31;74675;51.980;5.730;2024-01-30T13:39:09;12.5;65.7
84440;SHT31;74675;51.980;5.730;2024-01-30T13:41:39;12.4;65.8
84440;SHT31;74675;51.980;5.730;2024-01-30T13:44:10;12.3;66.3
84440;SHT31;74675;51.980;5.730;2024-01-30T13:46:39;12.2;66.4
84440;SHT31;74675;51.980;5.730;2024-01-30T13:49:08;12.2;66.6
84440;SHT31;74675;51.980;5.730;2024-01-30T13:51:39;12.1;66.4
84440;SHT31;74675;51.980;5.730;2024-01-30T13:54:07;12.1;66.8
84440;SHT31;74675;51.980;5.730;2024-01-30T13:56:36;12.0;66.9
84440;SHT31;74675;51.980;5.730;2024-01-30T13:59:05;12.0;67.0
84440;SHT31;74675;51.980;5.730;2024-01-30T14:01:36;12.0;67.2
84440;SHT31;74675;51.980;5.730;2024-01-30T14:04:04;12.0;67.3
84440;SHT31;74675;51.980;5.730;2024-01-30T14:06:33;12.1;66.8
84440;SHT31;74675;51.980;5.730;2024-01-30T14:09:02;12.1;66.6
84440;SHT31;74675;51.980;5.730;2024-01-30T14:11:30;12.1;66.7
84440;SHT31;74675;51.980;5.730;2024-01-30T14:13:59;12.1;66.8
84440;SHT31;74675;51.980;5.730;2024-01-30T14:16:28;12.2;66.5
84440;SHT31;74675;51.980;5.730;2024-01-30T14:18:57;12.3;66.2
84440;SHT31;74675;51.980;5.730;2024-01-30T14:21:25;12.3;66.3
84440;SHT31;74675;51.980;5.730;2024-01-30T14:23:54;12.3;65.9
84440;SHT31;74675;51.980;5.730;2024-01-30T14:26:23;12.3;66.0
84440;SHT31;74675;51.980;5.730;2024-01-30T14:28:51;12.2;66.4
84440;SHT31;74675;51.980;5.730;2024-01-30T14:31:22;12.2;66.3
84440;SHT31;74675;51.980;5.730;2024-01-30T14:33:51;12.2;66.2
84440;SHT31;74675;51.980;5.730;2024-01-30T14:36:21;12.2;66.1
84440;SHT31;74675;51.980;5.730;2024-01-30T14:38:54;12.1;66.4
84440;SHT31;74675;51.980;5.730;2024-01-30T14:41:23;12.0;66.8
84440;SHT31;74675;51.980;5.730;2024-01-30T14:43:52;12.0;67.2
84440;SHT31;74675;51.980;5.730;2024-01-30T14:46:21;11.9;67.7
84440;SHT31;74675;51.980;5.730;2024-01-30T14:48:52;11.9;68.0
84440;SHT31;74675;51.980;5.730;2024-01-30T14:51:20;11.8;68.5
84440;SHT31;74675;51.980;5.730;2024-01-30T14:53:49;11.8;68.8
84440;SHT31;74675;51.980;5.730;2024-01-30T14:56:18;11.8;69.3
84440;SHT31;74675;51.980;5.730;2024-01-30T14:58:48;11.7;69.3
84440;SHT31;74675;51.980;5.730;2024-01-30T15:01:18;11.7;69.4
84440;SHT31;74675;51.980;5.730;2024-01-30T15:03:48;11.7;69.7
84440;SHT31;74675;51.980;5.730;2024-01-30T15:06:21;11.6;69.7
84440;SHT31;74675;51.980;5.730;2024-01-30T15:08:51;11.6;69.8
84440;SHT31;74675;51.980;5.730;2024-01-30T15:11:21;11.5;69.9
84440;SHT31;74675;51.980;5.730;2024-01-30T15:13:50;11.5;69.9
84440;SHT31;74675;51.980;5.730;2024-01-30T15:16:20;11.4;70.1
84440;SHT31;74675;51.980;5.730;2024-01-30T15:18:48;11.4;70.3
84440;SHT31;74675;51.980;5.730;2024-01-30T15:21:17;11.3;70.6
84440;SHT31;74675;51.980;5.730;2024-01-30T15:23:49;11.3;70.7
84440;SHT31;74675;51.980;5.730;2024-01-30T15:26:17;11.3;70.9
84440;SHT31;74675;51.980;5.730;2024-01-30T15:28:46;11.3;71.2
84440;SHT31;74675;51.980;5.730;2024-01-30T15:31:15;11.2;71.2
84440;SHT31;74675;51.980;5.730;2024-01-30T15:33:43;11.2;71.4
84440;SHT31;74675;51.980;5.730;2024-01-30T15:36:12;11.2;71.7
84440;SHT31;74675;51.980;5.730;2024-01-30T15:38:42;11.1;72.1
84440;SHT31;74675;51.980;5.730;2024-01-30T15:41:11;11.1;72.9
84440;SHT31;74675;51.980;5.730;2024-01-30T15:43:40;11.1;73.6
84440;SHT31;74675;51.980;5.730;2024-01-30T15:46:09;11.0;74.1
84440;SHT31;74675;51.980;5.730;2024-01-30T15:48:38;11.0;74.7
84440;SHT31;74675;51.980;5.730;2024-01-30T15:51:07;10.9;75.2
84440;SHT31;74675;51.980;5.730;2024-01-30T15:53:35;10.9;75.9
84440;SHT31;74675;51.980;5.730;2024-01-30T15:56:05;10.8;76.3
84440;SHT31;74675;51.980;5.730;2024-01-30T15:58:36;10.8;76.6
84440;SHT31;74675;51.980;5.730;2024-01-30T16:01:05;10.7;77.1
84440;SHT31;74675;51.980;5.730;2024-01-30T16:03:33;10.7;76.7
84440;SHT31;74675;51.980;5.730;2024-01-30T16:06:02;10.6;76.7
84440;SHT31;74675;51.980;5.730;2024-01-30T16:08:31;10.5;77.4
84440;SHT31;74675;51.980;5.730;2024-01-30T16:11:00;10.5;77.6
84440;SHT31;74675;51.980;5.730;2024-01-30T16:13:29;10.4;77.8
84440;SHT31;74675;51.980;5.730;2024-01-30T16:15:57;10.4;77.9
84440;SHT31;74675;51.980;5.730;2024-01-30T16:18:27;10.4;78.0